Time;durP1;ratioP1;P1;durP2;ratioP2;P2;SDS_P1;SDS_P2;PMS_P1;PMS_P2;Temp;Humidity;BMP_temperature;BMP_pressure;BME280_temperature;BME280_humidity;BME280_pressure;Samples;Min_cycle;Max_cycle;Signal;HPM_P1;HPM_P2
2024/01/09 00:01:09;;;;;;;6.20;2.30;;;-2.10;99.90;;;;;;5002306;28;20309;-69
2024/01/09 00:04:04;;;;;;;4.85;3.05;;;-2.10;99.90;;;;;;5009094;28;20210;-68
2024/01/09 00:06:31;;;;;;;6.57;3.90;;;-2.20;99.90;;;;;;5018160;28;20540;-70
2024/01/09 00:08:58;;;;;;;4.38;2.60;;;-2.20;99.90;;;;;;5019994;28;20201;-69
2024/01/09 00:11:27;;;;;;;5.07;4.10;;;-2.30;99.90;;;;;;5008443;28;20258;-68
2024/01/09 00:13:54;;;;;;;5.10;3.30;;;-2.30;99.90;;;;;;5001735;28;20209;-68
2024/01/09 00:16:21;;;;;;;4.85;2.58;;;-2.40;99.90;;;;;;5005248;28;20726;-68
2024/01/09 00:18:53;;;;;;;6.15;3.53;;;-2.40;99.90;;;;;;5013382;28;20213;-69
2024/01/09 00:21:21;;;;;;;3.90;2.60;;;-2.40;99.90;;;;;;4999684;28;20272;-69
2024/01/09 00:23:48;;;;;;;5.15;3.17;;;-2.40;99.90;;;;;;5006456;28;20206;-70
2024/01/09 00:26:15;;;;;;;4.30;2.60;;;-2.50;99.90;;;;;;4993452;28;20627;-70
2024/01/09 00:28:42;;;;;;;5.00;4.10;;;-2.40;99.90;;;;;;5002038;28;20264;-68
2024/01/09 00:31:09;;;;;;;3.45;2.90;;;-2.50;99.90;;;;;;4998279;28;20198;-69
2024/01/09 00:33:36;;;;;;;3.60;2.50;;;-2.50;99.90;;;;;;4999579;28;20239;-68
2024/01/09 00:36:04;;;;;;;6.20;3.15;;;-2.60;99.90;;;;;;5001536;28;20210;-69
2024/01/09 00:38:32;;;;;;;5.85;3.30;;;-2.60;99.90;;;;;;4994023;28;20237;-69
2024/01/09 00:40:59;;;;;;;3.08;2.20;;;-2.60;99.90;;;;;;4992512;28;20226;-70
2024/01/09 00:43:26;;;;;;;6.05;3.22;;;-2.60;99.90;;;;;;4994607;28;20257;-67
2024/01/09 00:45:53;;;;;;;6.05;3.35;;;-2.50;99.90;;;;;;4999296;28;20287;-69
2024/01/09 00:48:20;;;;;;;6.32;4.13;;;-2.60;99.90;;;;;;4992517;28;20198;-69
2024/01/09 00:50:47;;;;;;;5.20;3.08;;;-2.60;99.90;;;;;;4992048;28;20217;-69
2024/01/09 00:53:14;;;;;;;6.65;3.55;;;-2.60;99.90;;;;;;5005804;28;20216;-71
2024/01/09 00:55:43;;;;;;;5.82;3.42;;;-2.60;99.90;;;;;;4993160;28;20202;-69
2024/01/09 00:58:10;;;;;;;5.40;2.60;;;-2.70;99.90;;;;;;4993946;28;20217;-68
2024/01/09 01:00:37;;;;;;;6.22;3.20;;;-2.70;99.90;;;;;;5002917;28;20248;-70
2024/01/09 01:03:04;;;;;;;6.10;3.42;;;-2.70;99.90;;;;;;5010013;28;20729;-69
2024/01/09 01:05:33;;;;;;;4.00;2.78;;;-2.70;99.90;;;;;;4995120;28;20209;-70
2024/01/09 01:08:01;;;;;;;10.50;3.30;;;-2.70;99.90;;;;;;4999466;28;20209;-69
2024/01/09 01:10:28;;;;;;;5.03;2.90;;;-2.80;99.90;;;;;;4998382;28;20202;-71
2024/01/09 01:12:57;;;;;;;4.88;2.92;;;-2.70;99.90;;;;;;5005006;28;20272;-71
2024/01/09 01:15:24;;;;;;;9.57;2.60;;;-2.80;99.90;;;;;;4993202;28;20199;-72
2024/01/09 01:17:51;;;;;;;3.92;2.30;;;-2.80;99.90;;;;;;5001765;28;20209;-70
2024/01/09 01:20:19;;;;;;;4.40;3.45;;;-2.80;99.90;;;;;;4998293;28;20229;-70
2024/01/09 01:22:46;;;;;;;4.75;3.00;;;-2.80;99.90;;;;;;5001509;28;20284;-69
2024/01/09 01:25:13;;;;;;;3.33;2.13;;;-2.80;99.90;;;;;;5002156;28;20202;-68
2024/01/09 01:27:40;;;;;;;3.88;2.70;;;-2.80;99.90;;;;;;4994040;28;20261;-69
2024/01/09 01:30:09;;;;;;;4.07;2.78;;;-2.80;99.90;;;;;;4994691;28;20202;-69
2024/01/09 01:32:37;;;;;;;6.90;3.40;;;-2.90;99.90;;;;;;4994895;28;20244;-70
2024/01/09 01:35:04;;;;;;;4.65;2.40;;;-2.90;99.90;;;;;;4995025;28;20206;-70
2024/01/09 01:37:31;;;;;;;4.85;2.97;;;-2.90;99.90;;;;;;5000296;28;20273;-70
2024/01/09 01:39:59;;;;;;;5.43;3.40;;;-2.90;99.90;;;;;;4991658;28;20284;-70
2024/01/09 01:42:26;;;;;;;8.15;3.28;;;-2.90;99.90;;;;;;4993360;28;20230;-71
2024/01/09 01:44:53;;;;;;;4.32;3.30;;;-2.90;99.90;;;;;;4993488;28;20708;-70
2024/01/09 01:47:21;;;;;;;6.68;3.55;;;-2.90;99.90;;;;;;4995344;28;20570;-67
2024/01/09 01:49:48;;;;;;;8.98;4.65;;;-3.00;99.90;;;;;;4998404;28;20680;-71
2024/01/09 01:52:16;;;;;;;5.93;2.95;;;-2.90;99.90;;;;;;4999408;28;20284;-71
2024/01/09 01:54:43;;;;;;;6.88;4.00;;;-3.00;99.90;;;;;;4993539;28;20712;-70
2024/01/09 01:57:12;;;;;;;5.45;2.90;;;-3.00;99.90;;;;;;4992997;28;20680;-70
2024/01/09 01:59:43;;;;;;;5.40;4.13;;;-3.10;99.90;;;;;;5002636;28;20225;-69
2024/01/09 02:02:14;;;;;;;5.25;3.60;;;-3.10;99.90;;;;;;5011163;28;20763;-69
2024/01/09 02:04:44;;;;;;;3.90;2.72;;;-3.10;99.90;;;;;;4999868;28;20213;-71
2024/01/09 02:07:11;;;;;;;4.90;3.38;;;-3.10;99.90;;;;;;4998537;28;20539;-69
2024/01/09 02:09:38;;;;;;;4.78;3.28;;;-3.10;99.90;;;;;;5004229;28;20205;-68
2024/01/09 02:12:06;;;;;;;8.88;4.80;;;-3.10;99.90;;;;;;5003987;28;20225;-70
2024/01/09 02:14:35;;;;;;;6.05;4.10;;;-3.20;99.90;;;;;;5003930;28;20201;-69
2024/01/09 02:17:02;;;;;;;7.95;3.40;;;-3.20;99.90;;;;;;5004837;28;20247;-71
2024/01/09 02:19:30;;;;;;;5.05;3.60;;;-3.10;99.90;;;;;;4999611;28;20293;-70
2024/01/09 02:21:59;;;;;;;6.30;3.70;;;-3.20;99.90;;;;;;5005997;28;20227;-70
2024/01/09 02:24:27;;;;;;;5.82;3.30;;;-3.20;99.90;;;;;;4995388;28;20260;-70
2024/01/09 02:27:11;;;;;;;5.03;3.17;;;-3.30;99.90;;;;;;4999939;28;20552;-69
2024/01/09 02:29:49;;;;;;;4.85;3.00;;;-3.30;99.90;;;;;;5009087;28;20202;-70
2024/01/09 02:32:17;;;;;;;3.67;3.20;;;-3.30;99.90;;;;;;5004866;28;20723;-72
2024/01/09 02:34:46;;;;;;;6.53;3.45;;;-3.30;99.90;;;;;;4995378;28;20345;-71
2024/01/09 02:37:13;;;;;;;4.85;3.20;;;-3.40;99.90;;;;;;5003032;28;20225;-70
2024/01/09 02:39:40;;;;;;;4.95;3.22;;;-3.40;99.90;;;;;;5002952;28;20252;-69
2024/01/09 02:42:08;;;;;;;5.15;4.63;;;-3.40;99.90;;;;;;4999620;28;20225;-69
2024/01/09 02:44:35;;;;;;;5.35;3.75;;;-3.40;99.90;;;;;;4996629;28;20206;-70
2024/01/09 02:47:04;;;;;;;5.93;3.80;;;-3.40;99.90;;;;;;4994993;28;20679;-72
2024/01/09 02:49:31;;;;;;;4.63;3.47;;;-3.40;99.90;;;;;;4994778;28;20206;-70
2024/01/09 02:51:58;;;;;;;6.57;3.47;;;-3.40;99.90;;;;;;5001974;28;20780;-70
2024/01/09 02:54:25;;;;;;;7.93;3.47;;;-3.40;99.90;;;;;;4999594;28;20680;-69
2024/01/09 02:56:52;;;;;;;3.50;3.20;;;-3.40;99.90;;;;;;4997117;28;20209;-70
2024/01/09 02:59:20;;;;;;;5.65;3.13;;;-3.30;99.90;;;;;;4997332;28;20209;-68
2024/01/09 03:01:47;;;;;;;4.90;3.20;;;-3.50;99.90;;;;;;4994683;28;20233;-70
2024/01/09 03:04:15;;;;;;;8.10;3.95;;;-3.50;99.90;;;;;;4996593;28;20206;-70
2024/01/09 03:06:42;;;;;;;6.57;4.38;;;-3.50;99.90;;;;;;5001717;28;20205;-70
2024/01/09 03:09:11;;;;;;;7.30;3.42;;;-3.40;99.90;;;;;;5001510;28;20210;-70
2024/01/09 03:11:38;;;;;;;4.95;3.03;;;-3.40;99.90;;;;;;4998935;28;20253;-70
2024/01/09 03:14:05;;;;;;;8.75;3.22;;;-3.40;99.90;;;;;;4996064;28;20252;-70
2024/01/09 03:16:31;;;;;;;4.70;3.67;;;-3.40;99.90;;;;;;4998623;28;20644;-69
2024/01/09 03:18:59;;;;;;;6.88;3.67;;;-3.40;99.90;;;;;;4998286;28;20204;-70
2024/01/09 03:21:30;;;;;;;7.93;4.20;;;-3.40;99.90;;;;;;4997973;28;20230;-68
2024/01/09 03:23:57;;;;;;;5.07;3.13;;;-3.40;99.90;;;;;;4995860;28;20213;-70
2024/01/09 03:26:26;;;;;;;6.38;3.58;;;-3.50;99.90;;;;;;4994436;28;20202;-70
2024/01/09 03:28:53;;;;;;;6.50;3.85;;;-3.60;99.90;;;;;;4994468;28;20205;-72
2024/01/09 03:31:21;;;;;;;6.38;3.55;;;-3.60;99.90;;;;;;4993695;28;20282;-70
2024/01/09 03:33:48;;;;;;;6.60;3.88;;;-3.50;99.90;;;;;;5006048;28;20387;-71
2024/01/09 03:36:15;;;;;;;5.57;4.30;;;-3.50;99.90;;;;;;4995221;28;20257;-69
2024/01/09 03:38:45;;;;;;;5.30;3.70;;;-3.50;99.90;;;;;;4994380;28;20240;-71
2024/01/09 03:41:13;;;;;;;7.43;3.78;;;-3.50;99.90;;;;;;4996697;28;20226;-69
2024/01/09 03:43:40;;;;;;;6.20;4.00;;;-3.50;99.90;;;;;;5004032;28;20274;-68
2024/01/09 03:46:07;;;;;;;3.85;3.03;;;-3.60;99.90;;;;;;5001409;28;20297;-70
2024/01/09 03:48:35;;;;;;;6.10;3.50;;;-3.60;99.90;;;;;;4995403;28;20237;-69
2024/01/09 03:51:02;;;;;;;3.78;2.85;;;-3.60;99.90;;;;;;4999437;28;20209;-70
2024/01/09 03:53:33;;;;;;;5.38;3.50;;;-3.70;99.90;;;;;;5003198;28;20265;-70
2024/01/09 03:59:29;;;;;;;5.28;3.30;;;-3.60;99.90;;;;;;5031988;28;20276;-80
2024/01/09 05:00:59;;;;;;;12.13;3.78;;;-3.80;99.90;;;;;;4888350;29;20224;-81
2024/01/09 05:04:13;;;;;;;7.88;4.10;;;-3.80;99.90;;;;;;4873627;29;20297;-80
2024/01/09 05:07:05;;;;;;;5.90;4.20;;;-3.80;99.90;;;;;;4892723;29;20212;-78
2024/01/09 05:34:22;;;;;;;11.25;4.00;;;-3.80;99.90;;;;;;5020431;28;20212;-82
2024/01/09 05:54:00;;;;;;;8.13;4.38;;;-3.90;99.90;;;;;;5057445;28;20210;-81
2024/01/09 05:56:37;;;;;;;7.30;5.07;;;-3.90;99.90;;;;;;5058146;28;20265;-80
2024/01/09 05:59:13;;;;;;;8.30;4.50;;;-4.00;99.90;;;;;;5041047;28;20195;-81
2024/01/09 06:02:01;;;;;;;9.20;5.35;;;-3.90;99.90;;;;;;5064665;28;20267;-80
2024/01/09 06:04:41;;;;;;;8.48;5.55;;;-3.90;99.90;;;;;;5048674;28;20211;-81
2024/01/09 06:07:09;;;;;;;10.60;5.97;;;-3.90;99.90;;;;;;5060158;28;20221;-80
2024/01/09 06:09:38;;;;;;;9.73;5.70;;;-3.90;99.90;;;;;;5059190;28;20215;-78
2024/01/09 06:12:15;;;;;;;8.10;5.38;;;-3.90;99.90;;;;;;5051546;28;20209;-80
2024/01/09 06:34:44;;;;;;;12.20;6.60;;;-3.80;99.90;;;;;;5029688;28;20223;-81
2024/01/09 06:37:22;;;;;;;14.20;6.47;;;-3.90;99.90;;;;;;5058044;28;20201;-81
2024/01/09 06:39:49;;;;;;;8.88;5.22;;;-3.70;99.90;;;;;;5058493;28;20214;-83
2024/01/09 06:45:48;;;;;;;9.02;5.57;;;-3.80;99.90;;;;;;4997653;28;20293;-70
2024/01/09 06:48:15;;;;;;;10.43;5.80;;;-3.70;99.90;;;;;;5003499;28;20198;-68
2024/01/09 06:50:43;;;;;;;11.25;6.57;;;-3.70;99.90;;;;;;5003841;28;20208;-68
2024/01/09 06:53:21;;;;;;;7.30;5.53;;;-3.80;99.90;;;;;;5009601;28;20229;-69
2024/01/09 06:55:48;;;;;;;12.25;6.35;;;-3.80;99.90;;;;;;4996914;28;20276;-69
2024/01/09 06:58:16;;;;;;;15.68;7.07;;;-3.70;99.90;;;;;;4996375;28;20237;-69
2024/01/09 07:00:49;;;;;;;16.02;8.35;;;-3.80;99.90;;;;;;5012162;28;20208;-70
2024/01/09 07:03:16;;;;;;;12.30;8.10;;;-3.90;99.90;;;;;;4997497;28;20230;-70
2024/01/09 07:05:46;;;;;;;10.73;6.65;;;-3.80;99.90;;;;;;5008458;28;20255;-72
2024/01/09 07:08:13;;;;;;;15.63;7.85;;;-3.70;99.90;;;;;;5008364;28;20289;-69
2024/01/09 07:10:40;;;;;;;11.70;6.15;;;-3.80;99.90;;;;;;5004625;28;20202;-70
2024/01/09 07:13:07;;;;;;;12.90;7.20;;;-3.80;99.90;;;;;;5007973;28;20225;-71
2024/01/09 07:15:34;;;;;;;16.50;8.70;;;-3.70;99.90;;;;;;5002890;28;20217;-68
2024/01/09 07:18:01;;;;;;;6.07;4.57;;;-3.80;99.90;;;;;;5016590;28;20205;-69
2024/01/09 07:20:52;;;;;;;13.38;6.57;;;-3.80;99.90;;;;;;5009419;28;20206;-70
2024/01/09 07:23:19;;;;;;;12.32;7.28;;;-3.80;99.90;;;;;;4997275;28;20693;-71
2024/01/09 07:25:50;;;;;;;10.00;6.13;;;-3.80;99.90;;;;;;4996872;28;20257;-70
2024/01/09 07:28:17;;;;;;;8.00;5.85;;;-3.80;99.90;;;;;;5000281;28;20206;-70
2024/01/09 07:30:44;;;;;;;9.32;5.50;;;-3.80;99.90;;;;;;4993984;28;20210;-70
2024/01/09 07:33:17;;;;;;;12.90;7.43;;;-3.90;99.90;;;;;;4998563;28;20284;-70
2024/01/09 07:35:44;;;;;;;12.05;6.93;;;-3.90;99.90;;;;;;5002308;28;20245;-70
2024/01/09 07:38:12;;;;;;;11.43;7.82;;;-3.80;99.90;;;;;;4994685;28;20735;-70
2024/01/09 07:40:41;;;;;;;12.55;7.20;;;-3.80;99.90;;;;;;5002207;28;20569;-70
2024/01/09 07:43:07;;;;;;;10.57;7.68;;;-3.70;99.90;;;;;;5005141;28;20296;-69
2024/01/09 07:45:35;;;;;;;12.98;6.75;;;-3.70;99.90;;;;;;5001809;28;20260;-70
2024/01/09 07:48:03;;;;;;;13.82;7.75;;;-3.60;99.90;;;;;;4995283;28;20241;-69
2024/01/09 07:50:30;;;;;;;9.25;6.30;;;-3.70;99.90;;;;;;4994161;28;20668;-69
2024/01/09 07:52:57;;;;;;;15.88;7.13;;;-3.70;99.90;;;;;;5003020;28;20221;-69
2024/01/09 07:55:40;;;;;;;13.68;8.15;;;-3.70;99.90;;;;;;5001162;28;20255;-71
2024/01/09 07:58:22;;;;;;;9.63;6.70;;;-3.60;99.90;;;;;;4996168;28;20261;-69
2024/01/09 08:00:49;;;;;;;9.63;6.95;;;-3.40;99.90;;;;;;4993880;28;20664;-69
2024/01/09 08:03:25;;;;;;;12.02;7.30;;;-3.50;99.90;;;;;;4994616;28;20299;-70
2024/01/09 08:05:53;;;;;;;10.13;6.50;;;-3.50;99.90;;;;;;5003599;28;20272;-69
2024/01/09 08:08:20;;;;;;;11.70;7.43;;;-3.50;99.90;;;;;;4996592;28;20205;-68
2024/01/09 08:10:48;;;;;;;12.55;6.47;;;-3.50;99.90;;;;;;5000588;28;20201;-69
2024/01/09 08:13:16;;;;;;;10.50;6.80;;;-3.40;99.90;;;;;;4999644;28;20272;-68
2024/01/09 08:15:43;;;;;;;11.40;6.93;;;-3.40;99.90;;;;;;5002061;28;20574;-70
2024/01/09 08:18:10;;;;;;;11.52;7.35;;;-3.40;99.90;;;;;;5002153;28;20679;-70
2024/01/09 08:20:37;;;;;;;13.88;7.25;;;-3.40;99.90;;;;;;4997594;28;20229;-71
2024/01/09 08:23:04;;;;;;;9.30;6.35;;;-3.30;99.90;;;;;;4999815;28;20642;-70
2024/01/09 08:25:32;;;;;;;9.75;6.93;;;-2.80;99.90;;;;;;4998895;28;20233;-70
2024/01/09 08:28:00;;;;;;;10.40;6.53;;;-2.10;99.90;;;;;;4997299;28;20598;-72
2024/01/09 08:30:27;;;;;;;8.65;5.30;;;-1.10;99.90;;;;;;5003114;28;20209;-70
2024/01/09 08:32:54;;;;;;;9.75;7.28;;;-0.10;99.90;;;;;;5003570;28;20217;-70
2024/01/09 08:35:21;;;;;;;14.38;6.20;;;0.90;99.90;;;;;;5000987;28;20616;-70
2024/01/09 08:37:48;;;;;;;10.88;5.65;;;1.80;99.90;;;;;;4995244;28;20202;-71
2024/01/09 08:40:15;;;;;;;11.75;6.13;;;2.50;99.90;;;;;;5006211;28;20592;-72
2024/01/09 08:42:41;;;;;;;10.25;7.25;;;3.00;99.90;;;;;;4997508;28;20290;-70
2024/01/09 08:45:12;;;;;;;7.13;4.82;;;2.70;99.10;;;;;;4993200;28;20234;-70
2024/01/09 08:47:39;;;;;;;9.15;6.18;;;2.40;98.80;;;;;;5001283;28;20241;-70
2024/01/09 08:50:07;;;;;;;8.68;5.90;;;1.90;98.60;;;;;;4992293;28;20222;-70
2024/01/09 08:52:35;;;;;;;10.07;6.50;;;1.80;99.40;;;;;;4994191;28;20252;-71
2024/01/09 08:55:03;;;;;;;11.55;7.00;;;1.90;99.90;;;;;;4994161;28;20214;-71
2024/01/09 08:57:30;;;;;;;11.52;6.45;;;2.50;98.80;;;;;;5004339;28;20201;-71
2024/01/09 08:59:58;;;;;;;11.73;7.40;;;3.00;97.70;;;;;;4995760;28;20214;-71
2024/01/09 09:02:26;;;;;;;9.38;6.30;;;3.40;96.80;;;;;;4997891;28;20308;-69
2024/01/09 09:04:53;;;;;;;10.93;6.32;;;4.10;95.70;;;;;;4996490;28;20223;-71
2024/01/09 09:07:21;;;;;;;7.35;5.28;;;4.40;94.70;;;;;;5000605;28;20208;-70
2024/01/09 09:09:48;;;;;;;7.20;5.85;;;4.90;93.50;;;;;;5008985;28;20205;-69
2024/01/09 09:12:16;;;;;;;9.20;6.90;;;5.50;92.40;;;;;;5006885;28;20225;-70
2024/01/09 09:14:43;;;;;;;6.13;4.57;;;5.90;91.40;;;;;;5006200;28;20198;-72
2024/01/09 09:17:12;;;;;;;7.47;4.65;;;6.00;89.70;;;;;;5008054;28;20236;-71
2024/01/09 09:19:40;;;;;;;7.15;5.90;;;6.40;87.10;;;;;;4996797;28;20204;-71
2024/01/09 09:22:07;;;;;;;7.50;5.57;;;7.20;86.00;;;;;;4996468;28;20265;-70
2024/01/09 09:24:34;;;;;;;6.25;5.65;;;7.20;83.80;;;;;;5005601;28;20205;-71
2024/01/09 09:27:01;;;;;;;7.47;5.75;;;7.50;82.90;;;;;;5001309;28;20212;-71
2024/01/09 09:29:28;;;;;;;7.00;5.20;;;7.40;81.30;;;;;;5001306;28;20611;-70
2024/01/09 09:31:55;;;;;;;4.60;4.18;;;7.70;81.30;;;;;;5005474;28;20620;-72
2024/01/09 09:34:22;;;;;;;6.40;5.22;;;8.00;79.10;;;;;;4996170;28;20278;-70
2024/01/09 09:36:52;;;;;;;5.65;4.28;;;7.60;78.60;;;;;;5003671;28;20268;-70
2024/01/09 09:39:19;;;;;;;5.20;4.57;;;7.40;78.90;;;;;;4999561;28;20202;-73
2024/01/09 09:41:49;;;;;;;8.65;6.72;;;7.00;80.40;;;;;;5000535;28;20222;-71
2024/01/09 09:44:18;;;;;;;13.20;6.25;;;7.20;79.70;;;;;;5003777;28;20218;-69
2024/01/09 09:46:46;;;;;;;7.82;5.43;;;7.20;78.50;;;;;;5004095;28;20202;-70
2024/01/09 09:49:14;;;;;;;8.07;5.65;;;7.40;78.90;;;;;;4999945;28;20318;-71
2024/01/09 09:51:44;;;;;;;7.50;6.40;;;7.10;78.10;;;;;;5004643;28;20229;-68
2024/01/09 09:54:14;;;;;;;9.68;6.10;;;7.60;78.60;;;;;;5009554;28;20594;-71
2024/01/09 09:56:41;;;;;;;6.70;4.85;;;7.20;76.70;;;;;;5002754;28;20202;-71
2024/01/09 09:59:10;;;;;;;7.63;5.18;;;7.50;76.60;;;;;;4997086;28;20216;-69
2024/01/09 10:01:38;;;;;;;9.75;6.30;;;7.60;75.90;;;;;;4995407;28;20715;-70
2024/01/09 10:04:20;;;;;;;8.52;5.85;;;8.10;75.90;;;;;;5001752;28;20312;-72
2024/01/09 10:06:48;;;;;;;6.63;5.57;;;8.40;74.50;;;;;;5008000;28;20288;-71
2024/01/09 10:09:17;;;;;;;7.10;5.20;;;8.40;71.60;;;;;;4995533;28;20252;-71
2024/01/09 10:11:49;;;;;;;5.32;4.82;;;8.10;71.70;;;;;;4996930;28;20222;-70
2024/01/09 10:14:16;;;;;;;7.03;5.63;;;8.10;72.20;;;;;;4998632;28;20210;-70
2024/01/09 10:16:50;;;;;;;10.15;5.25;;;7.60;71.90;;;;;;5000704;28;20205;-70
2024/01/09 10:19:19;;;;;;;5.90;5.25;;;7.30;72.50;;;;;;4997931;28;20217;-71
2024/01/09 10:21:46;;;;;;;8.13;5.03;;;7.20;71.80;;;;;;4997263;28;20222;-72
2024/01/09 10:24:15;;;;;;;11.23;5.63;;;6.80;72.40;;;;;;5002582;28;20218;-72
2024/01/09 10:26:44;;;;;;;4.97;4.35;;;6.60;72.40;;;;;;4995727;28;20202;-70
2024/01/09 10:29:11;;;;;;;8.07;4.95;;;6.00;72.40;;;;;;4998807;28;20279;-72
2024/01/09 10:31:38;;;;;;;7.97;4.78;;;5.50;73.60;;;;;;4997763;28;20225;-72
2024/01/09 10:34:06;;;;;;;8.57;5.65;;;5.20;75.00;;;;;;5003979;28;20620;-70
2024/01/09 10:36:33;;;;;;;5.82;4.68;;;4.70;75.10;;;;;;4999198;28;20204;-72
2024/01/09 10:39:04;;;;;;;5.00;4.22;;;4.20;76.10;;;;;;5005824;28;20227;-70
2024/01/09 10:41:33;;;;;;;7.00;4.85;;;4.20;77.80;;;;;;4998543;28;20224;-70
2024/01/09 10:44:02;;;;;;;4.68;3.78;;;4.50;79.10;;;;;;5001521;28;20229;-71
2024/01/09 10:46:31;;;;;;;12.73;5.57;;;4.50;77.60;;;;;;4997251;28;20214;-70
2024/01/09 10:49:00;;;;;;;5.60;5.00;;;4.20;77.00;;;;;;5002550;28;20269;-70
2024/01/09 10:51:27;;;;;;;7.72;5.40;;;3.70;77.90;;;;;;5003278;28;20659;-71
2024/01/09 10:53:56;;;;;;;14.27;5.68;;;3.00;78.60;;;;;;5004174;28;20209;-71
2024/01/09 10:56:23;;;;;;;7.03;5.63;;;2.70;80.40;;;;;;4998393;28;20230;-72
2024/01/09 10:58:51;;;;;;;11.02;5.90;;;2.60;80.90;;;;;;4998371;28;20210;-71
2024/01/09 11:01:20;;;;;;;9.32;6.40;;;2.20;81.30;;;;;;5002246;28;20739;-70
2024/01/09 11:03:48;;;;;;;10.73;6.40;;;1.80;81.90;;;;;;4994414;28;20541;-72
2024/01/09 11:06:17;;;;;;;9.25;5.72;;;1.50;83.50;;;;;;4995580;28;20272;-70
2024/01/09 11:08:50;;;;;;;7.50;5.43;;;1.40;85.10;;;;;;4997692;28;20198;-70
2024/01/09 11:11:19;;;;;;;5.18;4.53;;;1.20;84.30;;;;;;4993828;28;20245;-70
2024/01/09 11:13:51;;;;;;;6.38;5.05;;;1.10;85.10;;;;;;4997630;28;20294;-71
2024/01/09 11:16:22;;;;;;;5.88;5.03;;;0.90;86.70;;;;;;4995482;28;20309;-71
2024/01/09 11:18:51;;;;;;;5.15;4.38;;;0.80;87.00;;;;;;5004401;28;20232;-72
2024/01/09 11:21:24;;;;;;;8.20;5.13;;;0.90;88.00;;;;;;4993979;28;21873;-72
2024/01/09 11:24:00;;;;;;;8.75;4.68;;;1.00;87.60;;;;;;4999797;28;20210;-70
2024/01/09 11:26:30;;;;;;;6.15;4.50;;;0.80;87.00;;;;;;5006853;28;20209;-73
2024/01/09 11:28:59;;;;;;;5.63;4.47;;;0.70;88.00;;;;;;4996963;28;20210;-71
2024/01/09 11:31:29;;;;;;;11.32;4.45;;;0.70;88.50;;;;;;5001503;28;20704;-70
2024/01/09 11:33:57;;;;;;;5.10;4.07;;;0.60;87.90;;;;;;5003680;28;20697;-72
2024/01/09 11:36:25;;;;;;;6.18;5.32;;;0.40;87.40;;;;;;5008790;28;20209;-73
2024/01/09 11:38:54;;;;;;;8.27;4.57;;;0.30;87.60;;;;;;4996571;28;20198;-71
2024/01/09 11:41:23;;;;;;;4.50;3.35;;;0.30;88.20;;;;;;5006174;28;20214;-71
2024/01/09 11:44:03;;;;;;;8.50;4.22;;;0.30;88.50;;;;;;5000766;28;20281;-71
2024/01/09 11:46:36;;;;;;;10.85;5.78;;;0.30;89.00;;;;;;4998377;28;20201;-71
2024/01/09 11:49:04;;;;;;;6.07;4.22;;;0.20;89.40;;;;;;4994016;28;20221;-71
2024/01/09 11:51:33;;;;;;;6.18;5.57;;;0.30;90.20;;;;;;4995850;28;20222;-71
2024/01/09 11:54:01;;;;;;;10.60;4.97;;;0.30;90.30;;;;;;4999546;28;20206;-71
2024/01/09 11:56:29;;;;;;;5.05;4.15;;;0.40;89.60;;;;;;5005623;28;20208;-70
2024/01/09 11:58:57;;;;;;;6.53;5.00;;;0.40;89.40;;;;;;5004236;28;20206;-71
2024/01/09 12:01:24;;;;;;;13.75;5.55;;;0.40;89.00;;;;;;4993696;28;20206;-71
2024/01/09 12:03:53;;;;;;;6.55;4.63;;;0.30;89.30;;;;;;4997127;28;20303;-71
2024/01/09 12:06:22;;;;;;;3.30;2.90;;;0.30;88.60;;;;;;5003518;28;20257;-71
2024/01/09 12:08:49;;;;;;;7.82;4.40;;;0.20;88.90;;;;;;4994630;28;20210;-72
2024/01/09 12:11:16;;;;;;;7.68;4.25;;;0.20;89.80;;;;;;5003725;28;20244;-71
2024/01/09 12:13:44;;;;;;;6.65;3.80;;;0.20;89.80;;;;;;5001690;28;20223;-72
2024/01/09 12:16:18;;;;;;;5.47;3.97;;;0.30;90.10;;;;;;5005939;28;20233;-69
2024/01/09 12:18:52;;;;;;;5.90;4.35;;;0.20;88.90;;;;;;5006749;28;20202;-70
2024/01/09 12:21:22;;;;;;;10.10;4.20;;;0.20;89.40;;;;;;4999597;28;20209;-71
2024/01/09 12:23:50;;;;;;;4.03;3.72;;;0.20;89.60;;;;;;4996501;28;20210;-71
2024/01/09 12:26:19;;;;;;;3.72;3.42;;;0.20;89.40;;;;;;4993741;28;20210;-72
2024/01/09 12:28:47;;;;;;;3.20;3.00;;;0.30;89.70;;;;;;5000365;28;20589;-71
2024/01/09 12:31:16;;;;;;;5.10;3.80;;;0.30;89.70;;;;;;4998763;28;20751;-71
2024/01/09 12:33:43;;;;;;;3.63;3.25;;;0.30;89.70;;;;;;4999377;28;20280;-69
2024/01/09 12:36:10;;;;;;;4.28;3.53;;;0.40;89.50;;;;;;5000094;28;20206;-73
2024/01/09 12:38:39;;;;;;;4.10;3.50;;;0.50;89.80;;;;;;4997925;28;20260;-70
2024/01/09 12:41:06;;;;;;;5.07;3.42;;;0.40;89.80;;;;;;4997879;28;21776;-70
2024/01/09 12:43:34;;;;;;;6.03;3.72;;;0.50;90.20;;;;;;4996194;28;20746;-72
2024/01/09 12:46:02;;;;;;;4.05;3.30;;;0.50;90.60;;;;;;4999389;28;20293;-70
2024/01/09 12:48:29;;;;;;;3.50;3.20;;;0.70;90.30;;;;;;4995064;28;20268;-70
2024/01/09 12:51:03;;;;;;;4.68;4.10;;;0.70;90.60;;;;;;4999631;28;20257;-70
2024/01/09 12:53:31;;;;;;;6.07;2.95;;;0.70;90.80;;;;;;5005144;28;20533;-70
2024/01/09 12:56:08;;;;;;;4.10;3.80;;;0.80;90.70;;;;;;4994912;28;20571;-70
2024/01/09 12:58:37;;;;;;;6.57;3.17;;;0.70;90.70;;;;;;4998547;28;20220;-71
2024/01/09 13:01:04;;;;;;;4.40;3.05;;;0.60;91.00;;;;;;4997860;28;20248;-72
2024/01/09 13:03:32;;;;;;;8.73;4.38;;;0.60;91.30;;;;;;4995981;28;20707;-71
2024/01/09 13:06:01;;;;;;;6.32;3.08;;;0.60;91.70;;;;;;4997568;28;20257;-71
2024/01/09 13:08:28;;;;;;;7.47;3.72;;;0.60;91.90;;;;;;5005364;28;20288;-71
2024/01/09 13:10:55;;;;;;;4.63;3.90;;;0.60;92.30;;;;;;4996026;28;20609;-71
2024/01/09 13:13:24;;;;;;;4.82;3.35;;;0.60;92.70;;;;;;4992769;28;20226;-71
2024/01/09 13:15:51;;;;;;;5.53;3.20;;;0.70;93.20;;;;;;4996530;28;20668;-70
2024/01/09 13:18:19;;;;;;;3.33;3.03;;;0.70;93.70;;;;;;5002745;28;20644;-72
2024/01/09 13:20:46;;;;;;;7.72;3.60;;;0.80;94.20;;;;;;4997202;28;20245;-71
2024/01/09 13:23:14;;;;;;;6.85;4.22;;;0.80;94.70;;;;;;4994799;28;20676;-72
2024/01/09 13:25:41;;;;;;;5.15;3.35;;;0.80;95.10;;;;;;5001106;28;20241;-72
2024/01/09 13:28:08;;;;;;;4.00;3.60;;;0.90;95.80;;;;;;4996042;28;20197;-75
2024/01/09 13:30:37;;;;;;;6.15;4.35;;;0.90;96.30;;;;;;4997146;28;20668;-73
2024/01/09 13:33:06;;;;;;;9.45;3.90;;;0.90;96.80;;;;;;5000823;28;20232;-72
2024/01/09 13:35:34;;;;;;;4.20;3.38;;;0.90;97.10;;;;;;4997423;28;20661;-73
2024/01/09 13:38:05;;;;;;;5.32;4.80;;;1.00;97.40;;;;;;5001627;28;20215;-72
2024/01/09 13:40:35;;;;;;;6.30;3.85;;;1.00;97.50;;;;;;5005776;28;20205;-74
2024/01/09 13:43:03;;;;;;;4.60;3.58;;;0.90;97.60;;;;;;5000145;28;20237;-72
2024/01/09 13:45:32;;;;;;;6.45;4.07;;;0.80;97.80;;;;;;5001671;28;20206;-72
2024/01/09 13:48:00;;;;;;;3.55;2.80;;;0.80;98.10;;;;;;4993544;28;20212;-71
2024/01/09 13:50:27;;;;;;;7.45;3.92;;;0.70;98.30;;;;;;4992358;28;20237;-69
2024/01/09 13:52:54;;;;;;;4.30;3.60;;;0.70;98.80;;;;;;4994450;28;20234;-71
2024/01/09 13:55:22;;;;;;;4.85;2.78;;;0.80;98.60;;;;;;5007678;28;20345;-70
2024/01/09 13:57:49;;;;;;;5.28;3.10;;;0.80;98.40;;;;;;5000572;28;20198;-71
2024/01/09 14:00:17;;;;;;;4.25;3.30;;;0.80;98.60;;;;;;5002677;28;20260;-72
2024/01/09 14:02:45;;;;;;;5.63;3.15;;;0.80;98.80;;;;;;5001323;28;20235;-72
2024/01/09 14:05:15;;;;;;;4.38;3.22;;;0.90;99.00;;;;;;5001354;28;20232;-71
2024/01/09 14:07:43;;;;;;;5.97;4.18;;;0.80;98.90;;;;;;5000569;28;20234;-71
2024/01/09 14:10:11;;;;;;;4.55;3.63;;;0.90;99.10;;;;;;5008589;28;20290;-70
2024/01/09 14:12:39;;;;;;;3.85;3.10;;;0.90;99.30;;;;;;4996929;28;20309;-70
2024/01/09 14:15:08;;;;;;;7.40;3.70;;;0.80;99.20;;;;;;5001055;28;20210;-71
2024/01/09 14:17:37;;;;;;;6.28;3.60;;;0.80;99.30;;;;;;4995778;28;20256;-70
2024/01/09 14:20:07;;;;;;;4.22;2.85;;;0.80;99.50;;;;;;5001039;28;20210;-71
2024/01/09 14:22:35;;;;;;;8.30;3.65;;;0.80;99.80;;;;;;4999681;28;20230;-72
2024/01/09 14:25:02;;;;;;;6.78;3.90;;;0.70;99.90;;;;;;4999033;28;20261;-70
2024/01/09 14:27:29;;;;;;;8.38;3.28;;;0.70;99.80;;;;;;4997557;28;20626;-72
2024/01/09 14:29:57;;;;;;;5.90;3.35;;;0.70;99.90;;;;;;4996738;28;20267;-72
2024/01/09 14:32:25;;;;;;;4.00;3.60;;;0.60;99.90;;;;;;4995637;28;20230;-72
2024/01/09 14:34:53;;;;;;;6.68;2.90;;;0.50;99.90;;;;;;5005932;28;20281;-72
2024/01/09 14:37:20;;;;;;;5.68;2.53;;;0.50;99.90;;;;;;4995585;28;20296;-70
2024/01/09 14:39:51;;;;;;;2.85;2.63;;;0.50;99.90;;;;;;4998681;28;20264;-72
2024/01/09 14:42:19;;;;;;;3.47;3.00;;;0.50;99.90;;;;;;4997840;28;20246;-71
2024/01/09 14:44:46;;;;;;;5.03;3.17;;;0.50;99.90;;;;;;4998640;28;20253;-72
2024/01/09 14:47:14;;;;;;;3.67;2.72;;;0.50;99.90;;;;;;4994676;28;20206;-71
2024/01/09 14:49:41;;;;;;;4.60;3.55;;;0.40;99.90;;;;;;5001465;28;20209;-73
2024/01/09 14:52:08;;;;;;;8.75;3.83;;;0.40;99.90;;;;;;5005445;28;20225;-71
2024/01/09 14:54:37;;;;;;;3.85;2.90;;;0.40;99.90;;;;;;5003328;28;20258;-70
2024/01/09 14:57:06;;;;;;;6.72;3.50;;;0.30;99.90;;;;;;4999953;28;20291;-71
2024/01/09 14:59:33;;;;;;;4.60;2.97;;;0.30;99.90;;;;;;5000670;28;20202;-71
2024/01/09 15:02:01;;;;;;;2.88;2.63;;;0.30;99.90;;;;;;5007303;28;20234;-69
2024/01/09 15:04:28;;;;;;;8.52;5.03;;;0.30;99.90;;;;;;5000634;28;20226;-71
2024/01/09 15:06:55;;;;;;;10.38;3.70;;;0.30;99.90;;;;;;5002745;28;20682;-71